Time;durP1;ratioP1;P1;durP2;ratioP2;P2;SDS_P1;SDS_P2;PMS_P1;PMS_P2;Temp;Humidity;BMP_temperature;BMP_pressure;BME280_temperature;BME280_humidity;BME280_pressure;Samples;Min_cycle;Max_cycle;Signal;HPM_P1;HPM_P2
2022/07/18 00:01:44;;;;;;;9.70;5.80;;;;;;;19.64;71.58;102544.84;4984526;28;20060;-66
2022/07/18 00:04:09;;;;;;;8.82;5.57;;;;;;;19.62;72.15;102542.22;4985527;28;20507;-66
2022/07/18 00:06:35;;;;;;;10.35;5.80;;;;;;;19.59;72.32;102547.72;4984406;28;20374;-67
2022/07/18 00:09:00;;;;;;;14.32;6.60;;;;;;;19.52;72.23;102536.44;4985386;28;20040;-67
2022/07/18 00:11:26;;;;;;;9.18;5.80;;;;;;;19.51;71.85;102537.34;4983540;28;20369;-67
2022/07/18 00:13:51;;;;;;;10.57;5.57;;;;;;;19.43;71.97;102535.06;4984320;28;20030;-66
2022/07/18 00:16:17;;;;;;;12.70;5.03;;;;;;;19.41;72.04;102536.91;4984314;28;20109;-68
2022/07/18 00:18:42;;;;;;;11.10;5.63;;;;;;;19.37;72.31;102537.13;4983690;28;20039;-66
2022/07/18 00:21:08;;;;;;;9.82;5.43;;;;;;;19.35;72.20;102534.50;4983705;28;20026;-66
2022/07/18 00:23:33;;;;;;;11.68;5.80;;;;;;;19.35;71.92;102534.50;4985113;28;20056;-65
2022/07/18 00:25:58;;;;;;;9.73;5.30;;;;;;;19.32;71.51;102522.16;4984476;28;20037;-65
2022/07/18 00:28:24;;;;;;;7.68;4.97;;;;;;;19.31;71.22;102525.78;4985103;28;20026;-67
2022/07/18 00:30:49;;;;;;;7.50;5.38;;;;;;;19.30;70.89;102512.50;4978063;28;20196;-66
2022/07/18 00:33:14;;;;;;;7.65;5.05;;;;;;;19.29;71.04;102508.06;4965248;28;20088;-65
2022/07/18 00:35:40;;;;;;;11.35;5.38;;;;;;;19.32;70.17;102511.47;4965490;28;20026;-66
2022/07/18 00:38:05;;;;;;;6.70;4.70;;;;;;;19.28;70.03;102511.69;4985392;28;20043;-66
2022/07/18 00:40:32;;;;;;;13.07;5.10;;;;;;;19.28;70.63;102506.34;4983301;28;20385;-66
2022/07/18 00:42:58;;;;;;;6.50;4.00;;;;;;;19.25;70.49;102509.13;4984154;28;20034;-66
2022/07/18 00:45:23;;;;;;;6.72;4.60;;;;;;;19.23;71.11;102508.34;4982450;28;20026;-65
2022/07/18 00:47:51;;;;;;;8.23;4.13;;;;;;;19.19;71.04;102512.94;4983924;28;20029;-66
2022/07/18 00:50:17;;;;;;;9.40;4.80;;;;;;;19.17;71.07;102512.13;4983043;28;20485;-66
2022/07/18 00:52:42;;;;;;;6.78;4.40;;;;;;;19.12;71.32;102515.03;4983007;28;20038;-66
2022/07/18 00:55:08;;;;;;;8.70;4.65;;;;;;;19.08;71.35;102516.09;4983512;28;20028;-67
2022/07/18 00:57:34;;;;;;;6.75;4.60;;;;;;;19.06;71.53;102513.44;4984860;28;20489;-66
2022/07/18 01:02:43;;;;;;;7.13;4.50;;;;;;;19.01;71.12;102509.25;4983546;28;20516;-66
2022/07/18 01:05:08;;;;;;;6.95;4.30;;;;;;;18.94;70.98;102509.50;4981376;28;20027;-66
2022/07/18 01:07:35;;;;;;;7.68;4.47;;;;;;;18.94;70.58;102511.31;4986480;23;20052;-65
2022/07/18 01:10:01;;;;;;;7.32;3.92;;;;;;;18.88;70.37;102501.78;5001986;28;20026;-65
2022/07/18 01:12:26;;;;;;;9.13;4.53;;;;;;;18.88;69.90;102514.25;5001105;28;20032;-65
2022/07/18 01:14:52;;;;;;;5.65;3.92;;;;;;;18.87;69.55;102507.19;5002777;28;20018;-66
2022/07/18 01:17:19;;;;;;;7.18;4.13;;;;;;;18.84;69.25;102502.81;5002516;28;20146;-65
2022/07/18 01:19:45;;;;;;;6.80;4.07;;;;;;;18.80;68.72;102498.56;5003248;28;20377;-66
2022/07/18 01:22:11;;;;;;;4.97;3.22;;;;;;;18.80;68.35;102506.56;5000758;28;20053;-65
2022/07/18 01:24:39;;;;;;;7.47;3.63;;;;;;;18.78;68.53;102501.28;5002300;28;20026;-65
2022/07/18 01:27:05;;;;;;;7.60;3.83;;;;;;;18.73;68.37;102505.97;5004018;28;20224;-67
2022/07/18 01:29:30;;;;;;;5.88;3.80;;;;;;;18.70;68.62;102506.09;5006788;28;20595;-67
2022/07/18 01:31:56;;;;;;;6.38;3.35;;;;;;;18.67;68.54;102506.22;5007331;28;20026;-65
2022/07/18 01:34:22;;;;;;;7.28;3.50;;;;;;;18.65;68.36;102506.28;5006791;28;20030;-66
2022/07/18 01:36:48;;;;;;;6.32;3.42;;;;;;;18.63;68.62;102502.81;5006041;28;20516;-67
2022/07/18 01:39:13;;;;;;;6.15;3.45;;;;;;;18.63;68.45;102507.28;5006376;28;20041;-67
2022/07/18 01:41:40;;;;;;;5.65;3.00;;;;;;;18.61;68.37;102499.34;5007019;28;20472;-66
2022/07/18 01:44:05;;;;;;;6.78;3.50;;;;;;;18.59;68.12;102494.97;5005465;28;20072;-67
2022/07/18 01:46:31;;;;;;;8.52;3.80;;;;;;;18.59;68.09;102494.97;5006819;28;20453;-66
2022/07/18 01:48:56;;;;;;;10.35;3.90;;;;;;;18.56;67.62;102488.84;5005961;28;20141;-67
2022/07/18 01:51:21;;;;;;;4.47;3.58;;;;;;;18.58;67.48;102494.13;5004204;28;20057;-66
2022/07/18 01:53:59;;;;;;;6.93;3.55;;;;;;;18.58;67.61;102488.78;5005992;28;20061;-67
2022/07/18 01:56:24;;;;;;;5.20;3.45;;;;;;;18.56;67.54;102483.50;5005905;28;20026;-65
2022/07/18 01:58:50;;;;;;;5.38;3.28;;;;;;;18.55;67.44;102491.59;5005799;28;20089;-64
2022/07/18 02:01:15;;;;;;;6.93;3.53;;;;;;;18.53;67.64;102485.44;5007162;28;20535;-65
2022/07/18 02:03:40;;;;;;;6.30;3.17;;;;;;;18.53;67.03;102478.31;5006449;28;20026;-65
2022/07/18 02:06:06;;;;;;;6.65;3.15;;;;;;;18.52;67.33;102475.69;5006525;28;20117;-65
2022/07/18 02:08:31;;;;;;;5.25;3.22;;;;;;;18.51;66.90;102480.16;5004389;28;20045;-65
2022/07/18 02:10:57;;;;;;;6.10;3.65;;;;;;;18.51;67.05;102476.63;5005809;28;20113;-66
2022/07/18 02:13:22;;;;;;;6.15;3.40;;;;;;;18.49;67.01;102476.69;5006012;28;20113;-67
2022/07/18 02:15:47;;;;;;;7.47;3.45;;;;;;;18.48;66.72;102482.09;5005200;28;20013;-66
2022/07/18 02:18:13;;;;;;;5.50;3.25;;;;;;;18.43;66.61;102469.78;5004728;28;20024;-66
2022/07/18 02:20:38;;;;;;;4.63;3.15;;;;;;;18.42;66.55;102465.41;5005262;28;20088;-65
2022/07/18 02:23:04;;;;;;;5.10;3.53;;;;;;;18.37;67.25;102467.41;5007152;28;20116;-66
2022/07/18 02:25:29;;;;;;;8.40;3.60;;;;;;;18.35;67.23;102458.59;5002724;28;20080;-66
2022/07/18 02:27:55;;;;;;;5.22;3.30;;;;;;;18.32;67.23;102461.38;5006420;28;20010;-65
2022/07/18 02:30:21;;;;;;;7.38;3.63;;;;;;;18.29;67.20;102461.50;5003855;28;20053;-65
2022/07/18 02:32:46;;;;;;;7.45;3.65;;;;;;;18.27;67.38;102458.03;4997994;28;20037;-66
2022/07/18 02:35:12;;;;;;;7.25;3.22;;;;;;;18.24;67.52;102451.00;5020243;28;20026;-65
2022/07/18 02:37:38;;;;;;;4.03;3.03;;;;;;;18.21;67.50;102455.63;5004868;28;20297;-67
2022/07/18 02:40:08;;;;;;;5.20;3.33;;;;;;;18.19;67.20;102453.84;5006002;28;20076;-65
2022/07/18 02:42:33;;;;;;;6.38;3.45;;;;;;;18.17;67.88;102450.41;5006022;28;20022;-65
2022/07/18 02:44:59;;;;;;;5.13;3.42;;;;;;;18.15;67.59;102452.25;5005807;28;20026;-66
2022/07/18 02:47:24;;;;;;;8.07;3.80;;;;;;;18.13;67.87;102445.25;5003797;28;20045;-65
2022/07/18 02:49:49;;;;;;;4.72;2.63;;;;;;;18.12;67.81;102446.19;5004951;28;20056;-65
2022/07/18 02:52:15;;;;;;;4.70;3.15;;;;;;;18.10;67.75;102446.25;5004931;28;20044;-65
2022/07/18 02:54:40;;;;;;;4.20;2.85;;;;;;;18.08;67.80;102442.72;5005856;28;20022;-66
2022/07/18 02:57:06;;;;;;;5.63;3.13;;;;;;;18.06;67.71;102447.25;5005170;28;20539;-65
2022/07/18 02:59:31;;;;;;;4.70;2.92;;;;;;;18.04;67.86;102449.13;5005478;28;20038;-66
2022/07/18 03:01:57;;;;;;;5.40;3.38;;;;;;;18.01;68.00;102441.25;5004868;28;20033;-65
2022/07/18 03:04:22;;;;;;;9.27;3.08;;;;;;;18.01;68.19;102435.91;5005995;28;20022;-66
2022/07/18 03:06:49;;;;;;;8.95;3.45;;;;;;;17.99;68.13;102443.97;5003285;28;20045;-66
2022/07/18 03:09:15;;;;;;;4.72;3.00;;;;;;;17.97;68.22;102432.50;5005238;28;20053;-66
2022/07/18 03:11:40;;;;;;;4.22;3.10;;;;;;;17.97;67.94;102437.81;5003363;28;20034;-65
2022/07/18 03:14:06;;;;;;;6.47;3.72;;;;;;;17.96;68.05;102429.88;5006086;28;20034;-66
2022/07/18 03:16:31;;;;;;;4.53;3.25;;;;;;;17.97;67.50;102431.63;5004519;28;20357;-66
2022/07/18 03:18:57;;;;;;;6.20;2.72;;;;;;;17.94;68.69;102430.81;5005059;28;20121;-65
2022/07/18 03:21:23;;;;;;;3.90;3.28;;;;;;;17.92;69.28;102423.81;5003472;28;20018;-67
2022/07/18 03:23:48;;;;;;;3.45;2.83;;;;;;;17.91;68.94;102417.59;5005725;28;20072;-64
2022/07/18 03:26:13;;;;;;;6.38;3.10;;;;;;;17.92;68.69;102421.16;5003956;28;20025;-66
2022/07/18 03:28:39;;;;;;;9.52;3.45;;;;;;;17.92;68.11;102419.38;5005695;28;20109;-66
2022/07/18 03:31:04;;;;;;;4.15;3.03;;;;;;;17.90;68.36;102409.66;5003821;28;20022;-65
2022/07/18 03:33:30;;;;;;;6.05;3.10;;;;;;;17.89;67.72;102405.28;5004467;28;20026;-66
2022/07/18 03:35:55;;;;;;;8.18;3.05;;;;;;;17.89;67.60;102408.81;5004067;28;20726;-66
2022/07/18 03:38:21;;;;;;;5.80;3.30;;;;;;;17.90;67.31;102410.56;5004611;28;20656;-66
2022/07/18 03:40:46;;;;;;;7.20;3.92;;;;;;;17.92;68.05;102407.81;5003350;28;20085;-66
2022/07/18 03:43:11;;;;;;;6.28;3.40;;;;;;;17.94;67.99;102406.81;5004459;28;20079;-65
2022/07/18 03:45:37;;;;;;;8.77;3.08;;;;;;;17.96;67.96;102403.22;5005120;28;20034;-65
2022/07/18 03:48:02;;;;;;;8.82;2.88;;;;;;;18.01;67.33;102401.25;5003674;28;20472;-67
2022/07/18 03:50:28;;;;;;;7.60;3.17;;;;;;;17.99;67.75;102408.44;5003206;28;20053;-66
2022/07/18 03:52:53;;;;;;;5.38;3.00;;;;;;;17.99;67.93;102400.44;5003516;28;20115;-65
2022/07/18 03:55:19;;;;;;;5.57;3.30;;;;;;;17.99;67.52;102406.63;5004636;28;20076;-67
2022/07/18 03:57:44;;;;;;;5.90;2.95;;;;;;;18.01;67.72;102388.78;5003605;28;20026;-67
2022/07/18 04:00:11;;;;;;;4.95;2.67;;;;;;;18.05;67.75;102394.84;5004298;28;20057;-66
2022/07/18 04:02:41;;;;;;;7.80;2.92;;;;;;;18.04;67.55;102391.34;5019115;28;20137;-65
2022/07/18 04:05:06;;;;;;;5.22;2.90;;;;;;;18.11;66.84;102391.97;5004414;28;20121;-66
2022/07/18 04:07:32;;;;;;;5.05;2.85;;;;;;;18.17;66.29;102391.72;5003121;28;20121;-65
2022/07/18 04:09:57;;;;;;;8.32;2.45;;;;;;;18.21;65.67;102397.78;5004604;28;20161;-66
2022/07/18 04:12:22;;;;;;;4.05;2.58;;;;;;;18.25;65.52;102382.53;5003985;28;20034;-64
2022/07/18 04:14:48;;;;;;;3.90;2.83;;;;;;;18.27;64.97;102386.00;5003689;28;20136;-63
2022/07/18 04:17:13;;;;;;;6.40;3.00;;;;;;;18.33;64.92;102391.06;5003982;28;20257;-63
2022/07/18 04:19:38;;;;;;;4.82;2.95;;;;;;;18.35;63.79;102391.88;4999267;28;20486;-63
2022/07/18 04:22:04;;;;;;;5.60;3.20;;;;;;;18.41;63.79;102398.75;4997724;28;20034;-63
2022/07/18 04:24:29;;;;;;;5.25;2.72;;;;;;;18.44;64.09;102394.16;5003241;28;20017;-63
2022/07/18 04:26:54;;;;;;;8.32;2.85;;;;;;;18.48;63.16;102399.38;5002946;28;20030;-63
2022/07/18 04:29:20;;;;;;;4.15;2.75;;;;;;;18.54;63.32;102393.75;5004427;28;20036;-63
2022/07/18 04:31:45;;;;;;;8.32;3.50;;;;;;;18.56;63.27;102387.44;5004625;28;20117;-64
2022/07/18 04:34:10;;;;;;;4.80;2.95;;;;;;;18.60;63.16;102380.13;5004296;28;20022;-63
2022/07/18 04:36:35;;;;;;;6.38;3.40;;;;;;;18.66;62.89;102385.22;5002340;28;20050;-63
2022/07/18 04:39:01;;;;;;;11.35;4.15;;;;;;;18.74;62.36;102384.00;5004604;28;20053;-62
2022/07/18 04:41:26;;;;;;;7.82;4.03;;;;;;;18.85;62.57;102381.75;5004304;28;20080;-63
2022/07/18 04:43:52;;;;;;;9.02;3.33;;;;;;;18.86;62.00;102382.59;5004235;28;20041;-63
2022/07/18 04:46:17;;;;;;;9.13;3.30;;;;;;;18.87;61.84;102387.88;5004284;28;20028;-62
2022/07/18 04:48:42;;;;;;;6.30;3.35;;;;;;;18.92;61.85;102393.00;5019599;28;20595;-63
2022/07/18 04:51:08;;;;;;;7.15;3.40;;;;;;;18.93;61.71;102395.59;5003017;28;20033;-63
2022/07/18 04:53:33;;;;;;;8.65;3.80;;;;;;;18.93;62.25;102400.94;5004483;28;20030;-62
2022/07/18 04:55:58;;;;;;;8.90;3.72;;;;;;;18.95;62.03;102400.88;5004606;28;20037;-62
2022/07/18 04:58:24;;;;;;;7.63;3.25;;;;;;;19.00;62.06;102398.88;5003556;28;20022;-63
2022/07/18 05:00:49;;;;;;;5.28;3.70;;;;;;;19.04;62.40;102402.25;5003329;28;20065;-63
2022/07/18 05:03:14;;;;;;;6.18;3.92;;;;;;;19.09;62.49;102399.41;5008036;28;20022;-63
2022/07/18 05:05:40;;;;;;;6.75;3.72;;;;;;;19.11;62.64;102389.53;5006846;28;20022;-62
2022/07/18 05:08:05;;;;;;;8.75;3.50;;;;;;;19.15;62.78;102394.66;5007668;28;20050;-65
2022/07/18 05:10:31;;;;;;;8.73;4.20;;;;;;;19.25;62.27;102391.56;5007092;28;20022;-63
2022/07/18 05:12:57;;;;;;;6.30;3.45;;;;;;;19.35;62.25;102390.19;5003947;28;20574;-63
2022/07/18 05:15:23;;;;;;;8.13;3.60;;;;;;;19.42;62.18;102396.97;5007985;28;20444;-64
2022/07/18 05:17:49;;;;;;;7.60;4.20;;;;;;;19.45;61.98;102398.66;5008046;28;20062;-63
2022/07/18 05:20:17;;;;;;;9.25;4.30;;;;;;;19.54;61.64;102394.69;5007298;28;20065;-65
2022/07/18 05:22:42;;;;;;;6.47;3.83;;;;;;;19.60;61.98;102391.72;5006449;28;20053;-63
2022/07/18 05:25:09;;;;;;;7.55;3.92;;;;;;;19.69;61.78;102387.75;5007999;28;20026;-64
2022/07/18 05:27:35;;;;;;;9.10;3.40;;;;;;;19.84;61.29;102380.78;5005433;28;20472;-60
2022/07/18 05:30:01;;;;;;;9.95;3.67;;;;;;;19.90;61.49;102385.81;5007608;28;20080;-62
2022/07/18 05:32:26;;;;;;;9.57;3.90;;;;;;;20.08;60.83;102391.25;5005176;28;20624;-60
2022/07/18 05:34:52;;;;;;;11.07;4.95;;;;;;;20.17;60.05;102390.75;5006678;28;20121;-61
2022/07/18 05:37:17;;;;;;;7.28;4.22;;;;;;;20.36;59.90;102386.28;5004139;28;20021;-61
2022/07/18 05:39:43;;;;;;;9.63;4.07;;;;;;;20.52;59.08;102383.69;5006324;28;20290;-61
2022/07/18 05:42:08;;;;;;;10.35;4.28;;;;;;;20.58;58.42;102375.34;5006237;28;20211;-61
2022/07/18 05:44:33;;;;;;;12.07;4.50;;;;;;;20.67;58.29;102380.22;5006780;28;20022;-61
2022/07/18 05:46:59;;;;;;;10.05;4.15;;;;;;;20.81;57.62;102374.16;5005004;28;20034;-61
2022/07/18 05:49:24;;;;;;;12.85;4.35;;;;;;;20.93;57.34;102378.00;5005710;28;20014;-61
2022/07/18 05:51:49;;;;;;;11.38;4.70;;;;;;;21.07;56.08;102376.41;5005821;28;20033;-60
2022/07/18 05:54:18;;;;;;;15.75;5.88;;;;;;;21.10;56.08;102364.63;5006493;28;20030;-61
2022/07/18 05:56:50;;;;;;;;;;;;;;;21.12;55.94;102358.25;5003057;28;20053;-61
2022/07/18 05:59:17;;;;;;;6.68;3.95;;;;;;;21.26;55.70;102353.94;5002828;28;20172;-61
2022/07/18 06:01:42;;;;;;;9.65;4.38;;;;;;;21.34;54.66;102357.91;5006208;28;20361;-61
2022/07/18 06:04:08;;;;;;;8.27;4.30;;;;;;;21.52;53.64;102348.94;5016150;28;20075;-62
2022/07/18 06:06:33;;;;;;;10.23;3.97;;;;;;;21.66;53.75;102346.31;5006304;28;20491;-61
2022/07/18 06:08:58;;;;;;;10.13;4.70;;;;;;;21.81;52.61;102346.41;5006069;28;20046;-61
2022/07/18 06:11:24;;;;;;;7.05;4.88;;;;;;;21.78;52.40;102347.47;5006109;28;20061;-62
2022/07/18 06:13:49;;;;;;;9.82;5.07;;;;;;;21.91;52.12;102349.44;5005699;28;20149;-61
2022/07/18 06:16:15;;;;;;;7.60;4.43;;;;;;;21.95;52.09;102353.66;5005903;28;20080;-60
2022/07/18 06:18:40;;;;;;;10.20;4.18;;;;;;;22.06;51.94;102347.63;5006858;28;20025;-60
2022/07/18 06:21:06;;;;;;;7.97;5.25;;;;;;;22.17;51.56;102353.25;5005036;28;20027;-60
2022/07/18 06:23:31;;;;;;;12.95;4.00;;;;;;;22.26;51.53;102356.31;5005305;28;20116;-60
2022/07/18 06:25:57;;;;;;;12.77;5.47;;;;;;;22.37;51.58;102359.25;5004676;28;20131;-62
2022/07/18 06:28:23;;;;;;;11.52;4.47;;;;;;;22.40;52.07;102348.31;5004917;28;20048;-63
2022/07/18 06:30:48;;;;;;;6.70;4.07;;;;;;;22.39;52.42;102357.31;5003982;28;20030;-70
2022/07/18 06:33:13;;;;;;;11.35;5.15;;;;;;;22.42;51.61;102362.50;4987819;28;20485;-75
2022/07/18 06:35:40;;;;;;;11.27;4.28;;;;;;;22.48;51.70;102358.56;4985649;28;20346;-64
2022/07/18 06:38:05;;;;;;;8.10;4.53;;;;;;;22.56;51.87;102361.69;5003941;28;20399;-70
2022/07/18 06:40:30;;;;;;;9.50;3.75;;;;;;;22.44;52.52;102355.22;5005635;28;20034;-66
2022/07/18 06:42:56;;;;;;;16.13;4.10;;;;;;;22.52;52.91;102359.28;5000869;28;20583;-59
2022/07/18 06:45:21;;;;;;;14.50;4.78;;;;;;;22.43;52.90;102355.31;5005806;28;20032;-60
2022/07/18 06:47:46;;;;;;;11.60;5.15;;;;;;;22.41;53.25;102355.41;5004763;28;20032;-59
2022/07/18 06:50:13;;;;;;;6.68;4.55;;;;;;;22.46;53.01;102355.97;5020845;28;20105;-59
2022/07/18 06:52:39;;;;;;;7.80;4.45;;;;;;;22.61;52.29;102355.19;5004027;28;20033;-60
2022/07/18 06:55:05;;;;;;;7.35;4.35;;;;;;;22.75;52.28;102357.03;5006396;28;20050;-62
2022/07/18 06:57:31;;;;;;;8.38;5.20;;;;;;;22.97;51.92;102356.53;5003923;28;20096;-60
2022/07/18 06:59:56;;;;;;;10.85;4.68;;;;;;;23.15;51.67;102348.28;5005984;28;20022;-62
2022/07/18 07:02:21;;;;;;;9.73;4.47;;;;;;;23.21;51.76;102345.19;5003903;28;20405;-63
2022/07/18 07:04:47;;;;;;;11.45;5.30;;;;;;;23.37;51.37;102339.72;5003814;28;20022;-64
2022/07/18 07:07:12;;;;;;;10.13;5.18;;;;;;;23.42;51.40;102337.56;5003501;28;20030;-61
2022/07/18 07:09:37;;;;;;;13.25;5.13;;;;;;;23.54;50.66;102335.06;5005310;28;20480;-65
2022/07/18 07:12:03;;;;;;;10.45;4.53;;;;;;;23.62;50.37;102331.88;5005318;28;20052;-62
2022/07/18 07:14:28;;;;;;;11.88;4.82;;;;;;;23.73;50.79;102340.06;5003092;28;20022;-62
2022/07/18 07:16:54;;;;;;;7.25;4.30;;;;;;;23.87;49.68;102340.97;5005201;28;20021;-61
2022/07/18 07:19:19;;;;;;;10.13;4.85;;;;;;;23.88;49.89;102337.31;5003625;28;20663;-63
2022/07/18 07:21:44;;;;;;;8.65;4.13;;;;;;;24.12;49.16;102340.16;5004838;28;20133;-63
2022/07/18 07:24:09;;;;;;;11.93;4.18;;;;;;;24.16;48.63;102328.25;5002200;28;20056;-64
2022/07/18 07:26:35;;;;;;;12.20;4.60;;;;;;;24.17;48.97;102332.66;5005063;28;20057;-62
2022/07/18 07:29:00;;;;;;;9.52;3.63;;;;;;;24.34;47.61;102330.63;5003209;28;20074;-63
2022/07/18 07:31:26;;;;;;;6.97;3.83;;;;;;;24.42;47.01;102330.97;5005594;28;20491;-64
2022/07/18 07:33:51;;;;;;;7.82;3.45;;;;;;;24.54;46.58;102329.25;5003091;28;20030;-62
2022/07/18 07:36:16;;;;;;;9.00;3.78;;;;;;;24.58;46.63;102330.75;5005829;28;20492;-64
2022/07/18 07:38:42;;;;;;;13.85;4.20;;;;;;;24.76;46.33;102334.94;5002175;28;20034;-64
2022/07/18 07:41:07;;;;;;;12.70;3.88;;;;;;;24.84;46.17;102337.97;5005037;28;20051;-65
2022/07/18 07:43:32;;;;;;;19.42;4.65;;;;;;;24.66;46.15;102338.31;5003819;28;20321;-62
2022/07/18 07:46:05;;;;;;;8.70;4.30;;;;;;;24.70;46.53;102341.63;5081322;27;20398;-62
2022/07/18 07:48:31;;;;;;;10.55;4.20;;;;;;;24.85;46.38;102342.38;5080067;28;20402;-65
2022/07/18 07:50:56;;;;;;;8.60;3.75;;;;;;;24.94;46.27;102340.88;5061335;28;20411;-64
2022/07/18 07:53:22;;;;;;;8.07;3.75;;;;;;;25.01;45.92;102342.16;5060828;28;20025;-62
2022/07/18 07:55:47;;;;;;;9.18;4.65;;;;;;;24.99;46.18;102349.50;5060080;28;20071;-63
2022/07/18 07:58:12;;;;;;;7.18;3.35;;;;;;;25.13;45.91;102342.25;5059761;28;20599;-64
2022/07/18 08:00:38;;;;;;;13.57;4.40;;;;;;;25.30;45.35;102339.16;5068020;28;20016;-63
2022/07/18 08:03:05;;;;;;;12.90;4.65;;;;;;;25.38;45.92;102335.91;5060674;28;20036;-61
2022/07/18 08:05:34;;;;;;;9.20;3.38;;;;;;;25.53;45.64;102333.03;5054970;28;20044;-62
2022/07/18 08:08:00;;;;;;;10.20;5.85;;;;;;;25.70;44.80;102335.34;5080260;28;20036;-63
2022/07/18 08:10:26;;;;;;;13.07;4.43;;;;;;;25.68;44.60;102334.63;5065750;28;20108;-63
2022/07/18 08:12:52;;;;;;;13.15;4.53;;;;;;;25.77;44.35;102333.06;5060084;28;20029;-62
2022/07/18 08:15:17;;;;;;;15.48;5.05;;;;;;;25.83;43.11;102331.75;5058419;28;20025;-63
2022/07/18 08:17:43;;;;;;;11.43;4.00;;;;;;;25.97;44.17;102328.84;5059267;28;20448;-63
2022/07/18 08:20:09;;;;;;;13.73;4.13;;;;;;;26.06;43.33;102331.78;5066995;28;20032;-65
2022/07/18 08:22:34;;;;;;;9.68;3.75;;;;;;;26.20;42.69;102328.91;5045726;28;20029;-62
2022/07/18 08:25:01;;;;;;;10.43;4.20;;;;;;;26.37;43.32;102330.31;5078949;28;20507;-64
2022/07/18 08:27:26;;;;;;;5.03;2.97;;;;;;;26.33;43.52;102328.81;5080185;28;20020;-63
2022/07/18 08:29:51;;;;;;;8.55;3.50;;;;;;;26.56;43.41;102328.00;5075729;28;20103;-62
2022/07/18 08:32:17;;;;;;;11.80;4.30;;;;;;;26.66;42.33;102328.97;5060267;28;20028;-64
2022/07/18 08:34:42;;;;;;;10.75;3.78;;;;;;;26.58;42.23;102326.88;5057765;28;20043;-62
2022/07/18 08:37:08;;;;;;;11.43;3.65;;;;;;;26.64;42.56;102333.66;5080228;28;20024;-65
2022/07/18 08:39:33;;;;;;;9.25;3.45;;;;;;;26.77;42.02;102329.97;5079077;28;20725;-63
2022/07/18 08:42:00;;;;;;;17.77;4.18;;;;;;;26.87;41.14;102325.53;5060868;28;20039;-63
2022/07/18 08:44:29;;;;;;;10.38;3.63;;;;;;;26.95;41.16;102323.06;5066675;28;20035;-62
2022/07/18 08:46:57;;;;;;;13.55;3.40;;;;;;;26.99;40.77;102324.56;5089790;28;20107;-63
2022/07/18 08:49:22;;;;;;;7.95;2.80;;;;;;;27.18;40.26;102323.06;5079123;28;20032;-64
2022/07/18 08:51:47;;;;;;;13.20;3.83;;;;;;;27.17;38.93;102324.03;5079270;28;20029;-62
2022/07/18 08:54:13;;;;;;;14.32;4.18;;;;;;;27.31;39.37;102322.06;5078989;28;20081;-62
2022/07/18 08:56:38;;;;;;;11.75;4.05;;;;;;;27.23;39.04;102331.66;5069983;28;20032;-61
2022/07/18 08:59:04;;;;;;;12.68;3.88;;;;;;;27.39;38.86;102327.66;5066509;28;20020;-61
2022/07/18 09:01:32;;;;;;;16.42;3.40;;;;;;;27.31;38.90;102324.75;5064791;28;20028;-62
2022/07/18 09:04:24;;;;;;;;;;;;;;;27.43;38.94;102331.88;5065921;28;20028;-63
2022/07/18 09:06:52;;;;;;;12.70;3.45;;;;;;;27.70;37.11;102327.00;5065102;28;19948;-64
2022/07/18 09:09:18;;;;;;;14.07;4.05;;;;;;;27.68;37.15;102318.13;5065845;28;20036;-63
2022/07/18 09:11:54;;;;;;;12.27;3.42;;;;;;;27.77;37.06;102322.78;5052173;28;20029;-61
2022/07/18 09:14:32;;;;;;;16.10;3.72;;;;;;;27.87;37.49;102315.59;5045545;28;20056;-66
2022/07/18 09:17:11;;;;;;;9.00;3.35;;;;;;;27.94;37.44;102321.34;5045286;28;20039;-66
2022/07/18 09:19:38;;;;;;;10.35;3.45;;;;;;;28.01;37.07;102324.38;5045186;28;20450;-63
2022/07/18 09:22:21;;;;;;;15.77;3.50;;;;;;;28.20;37.28;102318.22;5045470;28;20463;-63
2022/07/18 09:25:08;;;;;;;12.30;2.90;;;;;;;28.36;35.37;102319.63;5045499;28;20032;-61
2022/07/18 09:27:40;;;;;;;9.95;3.40;;;;;;;28.49;35.33;102319.41;5062483;28;20029;-63
2022/07/18 09:30:12;;;;;;;11.32;3.72;;;;;;;28.61;34.79;102309.31;5065444;28;20024;-61
2022/07/18 09:32:39;;;;;;;10.68;3.65;;;;;;;28.62;34.63;102306.47;5049680;28;20060;-62
2022/07/18 09:35:05;;;;;;;9.07;3.20;;;;;;;28.49;34.82;102313.97;5044750;28;20028;-62
2022/07/18 09:37:31;;;;;;;14.38;3.85;;;;;;;28.55;34.89;102304.44;5053212;28;20037;-62
2022/07/18 09:40:19;;;;;;;11.52;3.85;;;;;;;28.65;36.20;102310.75;5047172;28;20172;-64
2022/07/18 09:42:51;;;;;;;;;;;;;;;28.84;34.78;102307.25;5064323;28;20028;-66
2022/07/18 09:45:22;;;;;;;14.02;3.72;;;;;;;29.16;34.27;102297.22;5046321;28;20315;-68
2022/07/18 09:47:53;;;;;;;7.78;3.60;;;;;;;29.08;33.11;102294.38;5057360;28;20028;-68
2022/07/18 09:50:27;;;;;;;13.98;3.50;;;;;;;29.12;33.47;102293.94;5063428;28;20029;-68
2022/07/18 09:53:16;;;;;;;9.10;3.08;;;;;;;29.21;34.64;102297.69;5060526;28;20064;-69
2022/07/18 09:55:43;;;;;;;6.55;2.63;;;;;;;29.37;35.09;102298.97;5044280;28;20123;-68
2022/07/18 09:58:08;;;;;;;10.45;2.63;;;;;;;29.47;34.44;102294.38;5060721;28;20037;-68
2022/07/18 10:00:36;;;;;;;8.23;3.08;;;;;;;29.59;34.71;102297.84;5064771;28;20111;-68
2022/07/18 10:03:04;;;;;;;9.37;2.70;;;;;;;29.85;34.90;102296.41;5062625;28;20032;-68
2022/07/18 10:05:31;;;;;;;9.68;2.90;;;;;;;29.96;33.02;102300.81;5060528;28;20321;-68
2022/07/18 10:07:58;;;;;;;12.40;2.77;;;;;;;30.02;31.60;102292.09;5061964;28;20549;-67
2022/07/18 10:10:24;;;;;;;8.45;3.10;;;;;;;29.77;32.40;102289.00;5061275;28;20280;-69
2022/07/18 10:12:52;;;;;;;11.77;2.63;;;;;;;29.50;34.12;102288.69;5062128;28;20119;-68
2022/07/18 10:15:23;;;;;;;10.05;3.05;;;;;;;29.58;33.76;102282.56;5060702;28;20055;-67
2022/07/18 10:17:50;;;;;;;8.18;2.53;;;;;;;29.81;33.18;102284.97;5063347;28;20070;-68
2022/07/18 10:20:16;;;;;;;11.18;3.03;;;;;;;29.92;32.75;102292.13;5062532;28;20654;-68
2022/07/18 10:22:42;;;;;;;4.35;1.92;;;;;;;30.22;28.88;102284.75;5064194;28;20024;-69
2022/07/18 10:25:13;;;;;;;7.78;2.30;;;;;;;30.37;27.28;102290.56;5048874;28;20029;-68
2022/07/18 10:27:49;;;;;;;10.45;2.55;;;;;;;30.42;31.01;102289.25;5044245;28;20486;-68
2022/07/18 10:30:15;;;;;;;6.40;2.47;;;;;;;30.56;29.41;102296.09;5047728;28;20021;-68
2022/07/18 10:32:42;;;;;;;7.40;2.60;;;;;;;30.83;27.83;102298.00;5051179;28;20086;-68
2022/07/18 10:35:10;;;;;;;6.57;2.60;;;;;;;31.01;28.65;102295.31;5060375;28;20017;-68
2022/07/18 10:37:35;;;;;;;8.10;3.00;;;;;;;31.14;29.31;102294.06;5061748;28;20104;-68
2022/07/18 10:40:24;;;;;;;6.82;2.60;;;;;;;30.99;30.46;102283.72;5062140;28;20129;-68
2022/07/18 10:43:29;;;;;;;6.22;2.80;;;;;;;31.11;29.09;102287.06;5063739;28;20047;-69
2022/07/18 10:45:55;;;;;;;12.98;2.95;;;;;;;31.26;29.62;102286.53;5031589;28;20045;-68
2022/07/18 10:48:33;;;;;;;10.13;3.13;;;;;;;31.19;30.61;102282.72;5044733;28;20032;-70
2022/07/18 10:51:18;;;;;;;10.25;2.83;;;;;;;31.06;29.87;102277.66;5056793;28;20033;-68
2022/07/18 10:54:01;;;;;;;16.52;3.58;;;;;;;31.38;29.01;102277.16;5066996;28;20020;-68
2022/07/18 10:56:35;;;;;;;6.35;3.20;;;;;;;31.34;27.40;102274.84;5061369;28;20040;-68
2022/07/18 10:59:14;;;;;;;12.15;3.13;;;;;;;31.53;27.09;102279.31;5063368;28;20025;-68
2022/07/18 11:01:48;;;;;;;13.88;3.22;;;;;;;31.74;28.44;102268.06;5046021;28;20021;-70
2022/07/18 11:04:30;;;;;;;9.50;2.90;;;;;;;31.67;29.92;102274.31;5061180;28;20029;-68
2022/07/18 11:07:03;;;;;;;8.20;3.05;;;;;;;31.75;28.87;102268.91;5063061;28;20463;-68
2022/07/18 11:09:40;;;;;;;7.45;2.85;;;;;;;31.83;26.36;102279.03;5042924;28;20034;-68
2022/07/18 11:12:29;;;;;;;7.03;2.80;;;;;;;32.09;26.50;102275.47;5061280;28;20027;-69
2022/07/18 11:15:11;;;;;;;7.75;3.47;;;;;;;32.44;25.81;102278.22;5063297;28;20037;-69
2022/07/18 11:17:51;;;;;;;5.95;2.90;;;;;;;32.32;26.38;102272.22;5060952;28;20032;-68
2022/07/18 11:20:26;;;;;;;5.93;3.08;;;;;;;32.12;27.10;102266.97;5057185;28;20522;-69
2022/07/18 11:22:51;;;;;;;7.53;2.70;;;;;;;32.46;27.28;102270.72;5060694;28;20036;-68
2022/07/18 11:25:17;;;;;;;6.53;2.83;;;;;;;32.71;26.88;102270.84;5071693;28;20498;-67
2022/07/18 11:27:43;;;;;;;12.55;2.70;;;;;;;32.92;28.72;102259.47;5045447;28;20020;-68